createdAt,value
2017-07-11T00:00:18.545Z,16.6
2017-07-11T00:15:19.015Z,16.6
2017-07-11T00:30:19.461Z,16.5
2017-07-11T00:45:24.711Z,16.4
2017-07-11T01:00:20.745Z,16.4
2017-07-11T01:15:19.116Z,16.3
2017-07-11T01:30:17.629Z,16.3
2017-07-11T01:45:19.641Z,16.2
2017-07-11T02:00:23.582Z,16.2
2017-07-11T02:15:19.001Z,16.1
2017-07-11T02:30:19.543Z,16.1
2017-07-11T02:45:18.400Z,16.1
2017-07-11T03:00:19.207Z,16.1
2017-07-11T03:15:19.053Z,16
2017-07-11T03:30:17.776Z,16
2017-07-11T03:45:18.897Z,15.9
2017-07-11T04:00:21.996Z,15.9
2017-07-11T04:15:17.718Z,15.9
2017-07-11T04:30:18.887Z,15.9
2017-07-11T04:45:19.155Z,15.9
2017-07-11T05:00:17.841Z,15.9
2017-07-11T05:15:18.851Z,15.9
2017-07-11T05:30:17.555Z,15.9
2017-07-11T05:45:18.805Z,15.9
2017-07-11T06:00:23.591Z,15.9
2017-07-11T06:15:19.045Z,15.9
2017-07-11T06:30:18.789Z,15.9
2017-07-11T06:45:19.316Z,15.9
2017-07-11T07:00:19.071Z,16
2017-07-11T07:15:18.513Z,16
2017-07-11T07:30:18.460Z,16.1
2017-07-11T07:45:18.410Z,16.1
2017-07-11T08:00:18.388Z,16.1
2017-07-11T08:15:18.480Z,16.2
2017-07-11T08:30:18.964Z,16.2
2017-07-11T08:45:17.578Z,16.2
2017-07-11T09:00:20.530Z,16.2
2017-07-11T09:15:19.111Z,16.2
2017-07-11T09:30:18.049Z,16.2
2017-07-11T09:45:17.756Z,16.2
2017-07-11T10:00:23.000Z,16.2
2017-07-11T10:15:17.858Z,16.2
2017-07-11T10:30:17.759Z,16.2
2017-07-11T10:45:18.952Z,16.2
2017-07-11T11:00:17.631Z,16.2
2017-07-11T11:15:18.629Z,16.2
2017-07-11T11:30:19.343Z,16.2
2017-07-11T11:45:18.110Z,16.2
2017-07-11T12:00:17.958Z,16.2
2017-07-11T12:15:17.552Z,16.2
2017-07-11T12:30:19.097Z,16.2
2017-07-11T12:45:17.937Z,16.2
2017-07-11T13:00:18.200Z,16.2
2017-07-11T13:15:17.912Z,16.2
2017-07-11T13:30:18.056Z,16.2
2017-07-11T13:45:17.841Z,16.2
2017-07-11T14:00:19.327Z,16.2
2017-07-11T14:15:17.968Z,16.1
2017-07-11T14:30:17.841Z,16.1
2017-07-11T14:45:19.324Z,16.1
2017-07-11T15:00:18.484Z,16.1
2017-07-11T15:15:18.273Z,16.1
2017-07-11T15:30:18.141Z,16.1
2017-07-11T15:45:17.775Z,16.1
2017-07-11T16:00:19.489Z,16.1
2017-07-11T16:15:18.213Z,16
2017-07-11T16:30:17.891Z,16
2017-07-11T16:45:17.776Z,15.9
2017-07-11T17:00:18.959Z,15.9
2017-07-11T17:15:17.561Z,15.9
2017-07-11T17:30:18.374Z,15.9
2017-07-11T17:45:18.097Z,15.8
2017-07-11T18:00:17.875Z,15.8
2017-07-11T18:15:17.641Z,15.8
2017-07-11T18:30:19.409Z,15.7
2017-07-11T18:45:18.030Z,15.7
2017-07-11T19:00:17.790Z,15.7
2017-07-11T19:15:19.595Z,15.6
2017-07-11T19:30:17.826Z,15.6
2017-07-11T19:45:19.122Z,15.6
2017-07-11T20:00:17.807Z,15.6
2017-07-11T20:15:18.844Z,15.6
2017-07-11T20:30:18.100Z,15.6
2017-07-11T20:45:17.857Z,15.6
2017-07-11T21:00:18.036Z,15.6
2017-07-11T21:15:17.679Z,15.5
2017-07-11T21:30:18.527Z,15.5
2017-07-11T21:45:18.280Z,15.5
2017-07-11T22:00:18.137Z,15.5
2017-07-11T22:15:17.741Z,15.5
2017-07-11T22:30:19.784Z,15.4
2017-07-11T22:45:17.868Z,15.4
2017-07-11T23:00:18.757Z,15.4
2017-07-11T23:15:17.943Z,15.4
2017-07-11T23:30:17.690Z,15.4
2017-07-11T23:45:18.376Z,15.4
